Time,TemperatureF,DewpointF,PressureIn,WindDirection,WindDirectionDegrees,WindSpeedMPH,WindSpeedGustMPH,Humidity,HourlyPrecipIn,Conditions,Clouds,dailyrainin,SoftwareType,DateUTC
2013-03-05 00:04:00,32.0,29.7,29.88,East,90,12.5,-999.0,91,-99.99,,,0.00,Acu-Link.com,2013-03-05 04:04:00,
2013-03-05 00:19:00,32.0,29.7,29.89,East,90,9.4,-999.0,91,-99.99,,,0.00,Acu-Link.com,2013-03-05 04:19:00,
2013-03-05 00:35:00,32.0,29.7,29.90,East,90,10.3,-999.0,91,-99.99,,,0.00,Acu-Link.com,2013-03-05 04:35:00,
2013-03-05 00:50:00,32.0,29.7,29.91,East,90,7.8,-999.0,91,-99.99,,,0.00,Acu-Link.com,2013-03-05 04:50:00,
2013-03-05 01:05:00,32.2,30.1,29.91,ESE,112,8.3,-999.0,92,-99.99,,,0.00,Acu-Link.com,2013-03-05 05:05:00,
2013-03-05 01:20:00,32.4,30.3,29.91,East,90,11.9,-999.0,92,-99.99,,,0.00,Acu-Link.com,2013-03-05 05:20:00,
2013-03-05 01:35:00,32.5,30.5,29.92,East,90,6.7,-999.0,92,-99.99,,,0.00,Acu-Link.com,2013-03-05 05:35:00,
2013-03-05 01:51:00,32.5,30.5,29.92,East,90,7.8,-999.0,92,-99.99,,,0.00,Acu-Link.com,2013-03-05 05:51:00,
2013-03-05 02:06:00,32.4,30.3,29.93,East,90,6.7,-999.0,92,-99.99,,,0.00,Acu-Link.com,2013-03-05 06:06:00,
2013-03-05 02:21:00,32.5,30.5,29.92,East,90,8.3,-999.0,92,-99.99,,,0.00,Acu-Link.com,2013-03-05 06:21:00,
2013-03-05 02:36:00,32.5,30.5,29.93,East,90,9.8,-999.0,92,-99.99,,,0.00,Acu-Link.com,2013-03-05 06:36:00,
2013-03-05 02:51:00,32.5,30.5,29.93,East,90,8.3,-999.0,92,-99.99,,,0.00,Acu-Link.com,2013-03-05 06:51:00,
2013-03-05 03:07:00,31.8,29.8,29.93,NE,45,7.8,-999.0,92,-99.99,,,0.00,Acu-Link.com,2013-03-05 07:07:00,
2013-03-05 03:22:00,31.3,29.2,29.94,NE,45,11.0,-999.0,92,-99.99,,,0.00,Acu-Link.com,2013-03-05 07:22:00,
2013-03-05 03:37:00,31.1,29.1,29.94,ENE,67,10.3,-999.0,92,-99.99,,,0.00,Acu-Link.com,2013-03-05 07:37:00,
2013-03-05 03:52:00,30.9,28.9,29.94,ENE,67,6.3,-999.0,92,-99.99,,,0.00,Acu-Link.com,2013-03-05 07:52:00,
2013-03-05 04:07:00,30.7,28.7,29.95,NE,45,9.8,-999.0,92,-99.99,,,0.00,Acu-Link.com,2013-03-05 08:07:00,
2013-03-05 04:23:00,30.7,29.0,29.95,NE,45,9.4,-999.0,93,-99.99,,,0.00,Acu-Link.com,2013-03-05 08:23:00,
2013-03-05 04:38:00,30.7,29.0,29.96,ENE,67,8.3,-999.0,93,-99.99,,,0.00,Acu-Link.com,2013-03-05 08:38:00,
2013-03-05 04:53:00,30.7,29.0,29.96,ENE,67,6.3,-999.0,93,-99.99,,,0.00,Acu-Link.com,2013-03-05 08:53:00,
2013-03-05 05:08:00,30.9,29.1,29.96,ENE,67,5.8,-999.0,93,-99.99,,,0.00,Acu-Link.com,2013-03-05 09:08:00,
2013-03-05 05:23:00,31.1,29.3,29.97,East,90,6.3,-999.0,93,-99.99,,,0.00,Acu-Link.com,2013-03-05 09:23:00,
2013-03-05 05:39:00,31.3,29.5,29.97,East,90,6.3,-999.0,93,-99.99,,,0.00,Acu-Link.com,2013-03-05 09:39:00,
2013-03-05 05:54:00,31.3,29.5,29.98,East,90,3.8,-999.0,93,-99.99,,,0.00,Acu-Link.com,2013-03-05 09:54:00,
2013-03-05 06:09:00,31.1,29.3,29.98,ENE,67,5.8,-999.0,93,-99.99,,,0.00,Acu-Link.com,2013-03-05 10:09:00,
2013-03-05 06:24:00,30.9,29.1,29.99,NE,45,5.8,-999.0,93,-99.99,,,0.00,Acu-Link.com,2013-03-05 10:24:00,
2013-03-05 06:39:00,30.9,29.4,29.99,NE,45,8.3,-999.0,94,-99.99,,,0.00,Acu-Link.com,2013-03-05 10:39:00,
2013-03-05 06:55:00,30.9,29.4,30.00,ENE,67,8.3,-999.0,94,-99.99,,,0.00,Acu-Link.com,2013-03-05 10:55:00,
2013-03-05 07:10:00,30.9,29.4,30.01,ENE,67,10.3,-999.0,94,-99.99,,,0.00,Acu-Link.com,2013-03-05 11:10:00,
2013-03-05 07:25:00,30.9,29.4,30.02,East,90,13.0,-999.0,94,-99.99,,,0.00,Acu-Link.com,2013-03-05 11:25:00,
2013-03-05 07:40:00,31.1,29.6,30.02,East,90,9.4,-999.0,94,-99.99,,,0.00,Acu-Link.com,2013-03-05 11:40:00,
2013-03-05 07:56:00,31.3,29.8,30.03,East,90,8.3,-999.0,94,-99.99,,,0.00,Acu-Link.com,2013-03-05 11:56:00,
2013-03-05 08:11:00,31.5,29.9,30.04,ESE,112,6.7,-999.0,94,-99.99,,,0.00,Acu-Link.com,2013-03-05 12:11:00,
2013-03-05 08:26:00,31.6,30.1,30.04,ENE,67,13.0,-999.0,94,-99.99,,,0.00,Acu-Link.com,2013-03-05 12:26:00,
2013-03-05 08:41:00,31.1,29.6,30.04,ESE,112,12.5,-999.0,94,-99.99,,,0.00,Acu-Link.com,2013-03-05 12:41:00,
2013-03-05 08:56:00,31.1,29.6,30.05,East,90,13.0,-999.0,94,-99.99,,,0.00,Acu-Link.com,2013-03-05 12:56:00,
2013-03-05 09:12:00,31.1,29.6,30.05,East,90,15.4,-999.0,94,-99.99,,,0.01,Acu-Link.com,2013-03-05 13:12:00,
2013-03-05 09:27:00,31.8,30.3,30.06,East,90,13.4,-999.0,94,-99.99,,,0.01,Acu-Link.com,2013-03-05 13:27:00,
2013-03-05 09:42:00,32.5,31.0,30.06,ENE,67,13.0,-999.0,94,-99.99,,,0.01,Acu-Link.com,2013-03-05 13:42:00,
2013-03-05 09:57:00,32.9,30.8,30.07,East,90,11.9,-999.0,92,-99.99,,,0.01,Acu-Link.com,2013-03-05 13:57:00,
2013-03-05 10:12:00,53.2,51.0,30.07,East,90,14.1,-999.0,92,-99.99,,,0.01,Acu-Link.com,2013-03-05 14:12:00,
2013-03-05 10:27:00,55.2,52.9,30.08,ESE,112,14.5,-999.0,92,-99.99,,,0.01,Acu-Link.com,2013-03-05 14:27:00,
2013-03-05 10:43:00,56.3,54.0,30.08,ESE,112,17.0,-999.0,92,-99.99,,,0.01,Acu-Link.com,2013-03-05 14:43:00,
2013-03-05 10:58:00,54.5,52.2,30.08,ESE,112,18.1,-999.0,92,-99.99,,,0.01,Acu-Link.com,2013-03-05 14:58:00,
2013-03-05 11:13:00,55.6,53.3,30.09,East,90,20.6,-999.0,92,-99.99,,,0.01,Acu-Link.com,2013-03-05 15:13:00,
2013-03-05 11:28:00,55.8,53.5,30.09,East,90,15.4,-999.0,92,-99.99,,,0.01,Acu-Link.com,2013-03-05 15:28:00,
2013-03-05 11:43:00,59.5,57.2,30.09,ENE,67,15.0,-999.0,92,-99.99,,,0.01,Acu-Link.com,2013-03-05 15:43:00,
2013-03-05 11:59:00,57.9,55.6,30.10,East,90,21.7,-999.0,92,-99.99,,,0.01,Acu-Link.com,2013-03-05 15:59:00,
2013-03-05 12:14:00,55.6,53.3,30.10,East,90,19.0,-999.0,92,-99.99,,,0.01,Acu-Link.com,2013-03-05 16:14:00,
2013-03-05 12:46:00,148.5,99.9,30.10,East,90,23.7,-999.0,92,-99.99,,,0.01,Acu-Link.com,2013-03-05 16:46:00,
2013-03-05 13:02:00,148.1,99.9,30.11,East,90,20.1,-999.0,92,-99.99,,,0.01,Acu-Link.com,2013-03-05 17:02:00,
2013-03-05 13:17:00,-40.0,-41.4,30.12,East,90,17.0,-999.0,92,-99.99,,,0.01,Acu-Link.com,2013-03-05 17:17:00,
2013-03-05 13:32:00,-40.0,-41.4,30.12,ESE,112,21.7,-999.0,92,-99.99,,,0.01,Acu-Link.com,2013-03-05 17:32:00,
2013-03-05 13:47:00,-29.7,-31.2,30.13,East,90,21.3,-999.0,92,-99.99,,,0.01,Acu-Link.com,2013-03-05 17:47:00,
2013-03-05 14:02:00,124.3,99.9,30.13,East,90,22.1,-999.0,92,-99.99,,,0.01,Acu-Link.com,2013-03-05 18:02:00,
2013-03-05 14:18:00,134.8,99.9,30.14,East,90,20.6,-999.0,92,-99.99,,,0.01,Acu-Link.com,2013-03-05 18:18:00,
2013-03-05 14:33:00,-40.0,-41.4,30.15,East,90,18.6,-999.0,92,-99.99,,,0.01,Acu-Link.com,2013-03-05 18:33:00,
2013-03-05 14:48:00,-40.0,-41.4,30.16,NE,45,22.1,-999.0,92,-99.99,,,0.02,Acu-Link.com,2013-03-05 18:48:00,
2013-03-05 15:03:00,142.3,99.9,30.17,East,90,18.6,-999.0,92,-99.99,,,0.02,Acu-Link.com,2013-03-05 19:03:00,
2013-03-05 15:18:00,-39.6,-41.1,30.18,ESE,112,24.8,-999.0,92,-99.99,,,0.02,Acu-Link.com,2013-03-05 19:18:00,
2013-03-05 15:34:00,122.2,99.9,30.19,ESE,112,25.7,-999.0,92,-99.99,,,0.02,Acu-Link.com,2013-03-05 19:34:00,
2013-03-05 15:49:00,145.9,99.9,30.20,East,90,19.0,-999.0,92,-99.99,,,0.02,Acu-Link.com,2013-03-05 19:49:00,
2013-03-05 16:04:00,-5.3,-7.0,30.20,East,90,19.0,-999.0,92,-99.99,,,0.02,Acu-Link.com,2013-03-05 20:04:00,
2013-03-05 19:48:00,-40.0,-42.4,30.32,East,90,15.4,-999.0,87,-99.99,,,0.02,Acu-Link.com,2013-03-05 23:48:00,
2013-03-05 20:03:00,-40.0,-42.4,30.33,East,90,19.0,-999.0,87,-99.99,,,0.02,Acu-Link.com,2013-03-06 00:03:00,
2013-03-05 20:18:00,-40.0,-42.4,30.34,ENE,67,18.6,-999.0,87,-99.99,,,0.02,Acu-Link.com,2013-03-06 00:18:00,
2013-03-05 20:33:00,-40.0,-42.4,30.34,ENE,67,18.6,-999.0,87,-99.99,,,0.02,Acu-Link.com,2013-03-06 00:33:00,
2013-03-05 20:49:00,59.9,56.0,30.35,ENE,67,19.7,-999.0,87,-99.99,,,0.02,Acu-Link.com,2013-03-06 00:49:00,
2013-03-05 21:04:00,109.8,99.9,30.35,East,90,12.5,-999.0,87,-99.99,,,0.02,Acu-Link.com,2013-03-06 01:04:00,
2013-03-05 21:19:00,109.8,99.9,30.35,NE,45,13.4,-999.0,87,-99.99,,,0.02,Acu-Link.com,2013-03-06 01:19:00,
2013-03-05 21:34:00,109.8,99.9,30.35,East,90,16.1,-999.0,87,-99.99,,,0.02,Acu-Link.com,2013-03-06 01:34:00,
2013-03-05 21:49:00,109.8,99.9,30.35,East,90,17.0,-999.0,87,-99.99,,,0.02,Acu-Link.com,2013-03-06 01:49:00,
2013-03-05 22:05:00,109.8,99.9,30.36,ENE,67,15.0,-999.0,87,-99.99,,,0.02,Acu-Link.com,2013-03-06 02:05:00,
2013-03-05 22:20:00,109.8,99.9,30.36,ENE,67,11.9,-999.0,87,-99.99,,,0.02,Acu-Link.com,2013-03-06 02:20:00,
2013-03-05 22:35:00,109.8,99.9,30.36,ENE,67,14.5,-999.0,87,-99.99,,,0.02,Acu-Link.com,2013-03-06 02:35:00,
2013-03-05 22:50:00,109.8,99.9,30.37,ENE,67,14.1,-999.0,87,-99.99,,,0.02,Acu-Link.com,2013-03-06 02:50:00,
2013-03-05 23:06:00,109.8,99.9,30.36,NE,45,17.0,-999.0,87,-99.99,,,0.02,Acu-Link.com,2013-03-06 03:06:00,
2013-03-05 23:21:00,109.8,99.9,30.36,East,90,14.5,-999.0,87,-99.99,,,0.02,Acu-Link.com,2013-03-06 03:21:00,
2013-03-05 23:36:00,109.8,99.9,30.37,East,90,18.6,-999.0,87,-99.99,,,0.02,Acu-Link.com,2013-03-06 03:36:00,
2013-03-05 23:51:00,109.8,99.9,30.37,ENE,67,14.1,-999.0,87,-99.99,,,0.02,Acu-Link.com,2013-03-06 03:51:00,